Tebingtinggi, Indonesia

8:04 AM WIB on December 23, 2014 (GMT +0700)
Polonia | Change Station
CLOSE
Current Station
Airport
Location: Medan,
Elevation: 82 ft
Nearby Weather Stations

Elev 82 ft 3.56 °N, 98.67 °E | Updated 34 minutes ago

Light Rain
Light Rain
77 °F
Feels Like 77 °F
N
0
Wind Variable Wind from North

Today
High -- | Low -- °F
--% Chance of Precip.
Yesterday
High -- | Low -- °F
Precip. -- in
6:24 AM 6:20 PM
New Moon, 1% visible
Pressure 29.80 in
Visibility 3.1 miles
Clouds Few 1700 ft
Mostly Cloudy 1800 ft
Dew Point 77 °F
Humidity 100%
Rainfall 0.00 in
Snow Depth Not available.
UV 1 out of 12
Pollen Not available.
Air Quality Not available.
Flu Activity Not available.
METAR WIMM 230030Z 00000KT 5000 -RA FEW017CB BKN018 25/25 Q1009

More Conditions Fewer Conditions

Pressure 29.80 in
Visibility 3.1 miles
Clouds Few 1700 ft
Mostly Cloudy 1800 ft
Dew Point 77 °F
Humidity 100%
Rainfall 0.00 in
Snow Depth Not available.
UV 1 out of 12
Pollen Not available.
Air Quality Not available.
Flu Activity Not available.
METAR WIMM 230030Z 00000KT 5000 -RA FEW017CB BKN018 25/25 Q1009

More Conditions Fewer Conditions

10-Day Weather Forecast

Almanac

Astronomy

Dec. 23, 2014 Rise Set
Actual Time
Civil Twilight
Nautical Twilight
Astronomical Twilight
Moon
Length of Visible Light
Length of Day
Tomorrow will be .
, % of the Moon is Illuminated

Today's Extremes

Country Highs Country Lows

Community

WunderPhotos

Upload Photos

1,779,742 photos uploaded!

WunderBlogs® & News

Nearby

Air Quality

  Air Quality AQ Index Pollutant
Not available.

Snow Depth

Station Depth Elevation

Earthquake Activity

City Distance Mag. Time & Date
Minimum magnitude displayed is 2.5.

Coastal Water Temperatures

Place Temperature

Nearby Weather Stations